Elbe, Washington
Current Conditions -  °F | °C
As of 11:03 AM on Friday 21 Nov 2014 (Local Time) from KGRF Reporting Station
Light Rain Light Rain  
Wind Chill: 11°   Ceiling: Unl
Heat Index: 11°   Visibility: 10mi
Dew Point:   Wind: 14mph
Humidity: 88%   Direction: 150°SSE
Pressure: 29.64"   Gusts: NA
Location:  46.76°N, 122.2°W
Report Text: KGRF 211903Z AUTO 15012KT 10SM -RA SCT017 11/09 A2964 RMK AO2
Loading
Personal Weather Stations






























Interactive Weather Map New forecast layout! Learn more

10-Day Weather Forecast

Advertisements
Track Severe Weather on mobile